Home PIREPS Pireps

Flight BEL1081

  • Submitted By: Marc Toussaint
  • Departure Airport: Rhein-Main-Flughafen Frankfurt am Main (EDDF)
  • Arrival Airport: Singapore Changi Airport (WSSS)
  • Aircraft: B777-300 (OO-YLK)
  • Flight Time: 12.19
  • Date Submitted: 03/02/2018
  • Route: EDDF-WSSS
  • Status: Accepted
Flight Details
Gross Revenue:
(479 load / € 0.00 per unit
€ 0.00
Fuel Cost:
(71294 fuel used @ 0 / unit)
€ 0.00

Additional Log Information:

View Log

Aircraft Used in flight is SkySprit2013 Boeing 777-900XV2R2 General Electri
00:59 Brakes are On
01:08 Brakes are Released
01:09 Brakes are On
01:09 Brakes are Released
01:11 Brakes are On
01:12 Brakes are Released
01:22 Brakes are On
01:22 Brakes are Released
01:25 You Took off @ 202 Knots and Flaps at Position 2
Departure Weather
EDDF 022250Z 19007KT 9999 BKN019 02/01 Q1007 NOSIGrn
01:25 Landing Gear Up @ 218 Knots and 480 Feet
01:26 Below 10000 feet you are not allowed to go over 250 knots
01:28 Above FL100 you need to switch of the landing lights
01:30 Paused
01:30 Unpaused
08:42 Above FL100 you need to switch of the landing lights
08:43 Paused
08:44 Unpaused
11:57 Paused
15:26 Unpaused
16:03 Paused
16:04 Unpaused
16:09 Overspeed
16:10 Recovered from Overspeed
16:28 You exceeded maximum bank angle
16:38 Paused
16:39 Unpaused
16:41 Landing Gear Down @ 194 Knots and 8350 Feet
16:44 You Landed @ 135 Knots and with -600 Vertical Speed
Arrival Weather
WSSS 031430Z 04009KT 9999 FEW018 BKN300 27/23 Q1013 NOSIGrn
16:44 Your Landing was very hard
16:47 Brakes are On
16:48 Paused
16:48 Brussels Bel-Track1.0.1.2

Route Map

Corporate About Us Our Team Vacancies Information Fleet Route Network Rules and Regulations Operations Flight Schedules Event Center Tours Partners IVAO Vatsim Acars dev FSCB

fb Users Online Belgium Bart Dammans, Belgium Jan Roscam,
3 Pilot(s) and 100 Guest(s) Online
CMS by phpVMS - Design by Crazycreatives.com - Copyright © 2018 - Brussels Airlines Virtual